Terminal Aerodrome Forecast
Issued by NWS Denver/Boulder, CO

Current Version | Previous Version | Text Only | Print | Product List | Glossary On
Versions: 1 2 3 4 5 6 7 8 9 10 11 12 13 14 15 16 17 18 19 20 21 22 23 24 25 26 27
000
FTUS45 KBOU 192103 AAA
TAFDEN
TAF AMD
KDEN 192103Z 1921/2024 27006KT P6SM SCT140 BKN220
     FM200300 20010KT P6SM FEW140 BKN220
     FM202000 08009KT P6SM FEW090 SCT140 BKN200=

USA.gov is the U.S. government's official web portal to all federal, state and local government web resources and services.